createdAt,value
2017-11-14T00:01:19.424Z,5.23
2017-11-14T00:03:47.303Z,4.70
2017-11-14T00:06:15.136Z,5.87
2017-11-14T00:08:42.974Z,4.90
2017-11-14T00:11:10.774Z,5.20
2017-11-14T00:13:38.741Z,5.60
2017-11-14T00:16:06.610Z,5.70
2017-11-14T00:18:34.442Z,4.80
2017-11-14T00:21:02.345Z,4.30
2017-11-14T00:23:30.259Z,4.90
2017-11-14T00:25:58.117Z,5.97
2017-11-14T00:28:26.045Z,7.17
2017-11-14T00:30:53.931Z,5.10
2017-11-14T00:33:21.828Z,4.80
2017-11-14T00:35:49.730Z,5.83
2017-11-14T00:38:17.553Z,4.80
2017-11-14T00:40:45.454Z,5.70
2017-11-14T00:43:13.364Z,5.33
2017-11-14T00:45:41.205Z,5.57
2017-11-14T00:48:09.823Z,5.50
2017-11-14T00:50:37.778Z,5.00
2017-11-14T00:53:05.683Z,6.00
2017-11-14T00:55:33.591Z,5.40
2017-11-14T00:58:01.464Z,5.23
2017-11-14T01:00:29.280Z,5.40
2017-11-14T01:02:57.386Z,4.40
2017-11-14T01:05:25.256Z,5.30
2017-11-14T01:07:53.088Z,5.23
2017-11-14T01:10:20.993Z,5.20
2017-11-14T01:12:48.940Z,4.13
2017-11-14T01:15:16.742Z,4.43
2017-11-14T01:17:44.585Z,4.20
2017-11-14T01:20:12.498Z,3.90
2017-11-14T01:22:41.108Z,4.60
2017-11-14T01:25:08.958Z,4.20
2017-11-14T01:27:36.878Z,6.53
2017-11-14T01:30:04.755Z,5.70
2017-11-14T01:32:32.726Z,5.03
2017-11-14T01:35:00.580Z,4.70
2017-11-14T01:37:28.484Z,4.73
2017-11-14T01:39:56.313Z,4.70
2017-11-14T01:42:24.231Z,4.30
2017-11-14T01:44:52.097Z,4.40
2017-11-14T01:47:19.934Z,5.37
2017-11-14T01:49:47.915Z,4.80
2017-11-14T01:52:15.799Z,4.27
2017-11-14T01:54:43.728Z,4.40
2017-11-14T01:57:11.648Z,4.50
2017-11-14T01:59:39.603Z,5.13
2017-11-14T02:02:07.419Z,4.90
2017-11-14T02:04:35.385Z,5.00
2017-11-14T02:07:03.363Z,5.27
2017-11-14T02:09:31.322Z,4.33
2017-11-14T02:11:59.269Z,5.10
2017-11-14T02:14:27.153Z,5.20
2017-11-14T02:16:55.043Z,4.87
2017-11-14T02:19:23.013Z,5.03
2017-11-14T02:21:50.901Z,5.30
2017-11-14T02:24:18.816Z,5.10
2017-11-14T02:27:05.414Z,4.53
2017-11-14T02:29:33.308Z,4.70
2017-11-14T02:32:01.220Z,4.93
2017-11-14T02:34:29.094Z,4.90
2017-11-14T02:36:56.950Z,6.10
2017-11-14T02:39:24.907Z,5.20
2017-11-14T02:41:53.554Z,5.00
2017-11-14T02:44:21.449Z,4.87
2017-11-14T02:46:49.372Z,5.00
2017-11-14T02:49:17.320Z,4.80
2017-11-14T02:51:45.257Z,4.53
2017-11-14T02:54:13.929Z,4.83
2017-11-14T02:56:41.860Z,4.87
2017-11-14T02:59:09.724Z,4.53
2017-11-14T03:01:37.608Z,4.20
2017-11-14T03:04:05.565Z,4.73
2017-11-14T03:06:33.467Z,4.50
2017-11-14T03:09:01.418Z,4.63
2017-11-14T03:11:29.346Z,4.67
2017-11-14T03:13:57.301Z,4.10
2017-11-14T03:16:25.938Z,4.00
2017-11-14T03:18:53.890Z,3.80
2017-11-14T03:21:21.833Z,4.20
2017-11-14T03:23:49.756Z,4.80
2017-11-14T03:26:17.688Z,4.40
2017-11-14T03:28:45.554Z,4.60
2017-11-14T03:31:13.518Z,4.10
2017-11-14T03:33:42.213Z,3.83
2017-11-14T03:36:10.980Z,4.10
2017-11-14T03:38:38.854Z,4.07
2017-11-14T03:41:06.732Z,4.00
2017-11-14T03:43:34.589Z,3.93
2017-11-14T03:46:02.544Z,4.30
2017-11-14T03:48:30.508Z,3.97
2017-11-14T03:50:58.420Z,3.83
2017-11-14T03:53:27.070Z,3.63
2017-11-14T03:55:55.058Z,4.40
2017-11-14T03:58:22.981Z,3.77
2017-11-14T04:00:50.864Z,3.97
2017-11-14T04:03:18.779Z,3.50
2017-11-14T04:05:47.403Z,4.07
2017-11-14T04:08:15.272Z,3.40
2017-11-14T04:10:43.116Z,3.70
2017-11-14T04:13:11.031Z,3.40
2017-11-14T04:15:38.970Z,3.63
2017-11-14T04:18:06.874Z,3.67
2017-11-14T04:20:34.862Z,4.33
2017-11-14T04:23:02.774Z,3.47
2017-11-14T04:25:31.493Z,3.93
2017-11-14T04:27:59.461Z,4.03
2017-11-14T04:30:27.360Z,3.80
2017-11-14T04:32:55.238Z,3.13
2017-11-14T04:35:23.143Z,3.57
2017-11-14T04:37:50.999Z,3.80
2017-11-14T04:40:19.657Z,4.00
2017-11-14T04:46:08.339Z,3.73
2017-11-14T04:48:36.239Z,4.10
2017-11-14T04:51:04.143Z,3.63
2017-11-14T04:53:32.026Z,4.53
2017-11-14T04:55:59.924Z,4.40
2017-11-14T04:58:27.752Z,4.53
2017-11-14T05:00:55.788Z,3.90
2017-11-14T05:03:24.419Z,3.70
2017-11-14T05:05:52.290Z,3.70
2017-11-14T05:08:20.153Z,4.67
2017-11-14T05:10:48.019Z,4.63
2017-11-14T05:16:45.264Z,4.73
2017-11-14T05:19:13.315Z,5.77
2017-11-14T05:21:41.192Z,4.67
2017-11-14T05:24:10.704Z,5.40
2017-11-14T05:26:38.586Z,5.40
2017-11-14T05:29:08.043Z,5.93
2017-11-14T05:31:36.043Z,6.13
2017-11-14T05:34:03.925Z,6.50
2017-11-14T05:36:32.640Z,5.97
2017-11-14T05:39:00.567Z,6.73
2017-11-14T05:41:28.629Z,7.07
2017-11-14T05:43:56.583Z,8.00
2017-11-14T05:46:24.499Z,6.73
2017-11-14T05:48:52.393Z,6.00
2017-11-14T05:51:20.491Z,6.70
2017-11-14T05:53:48.346Z,6.63
2017-11-14T05:56:16.312Z,6.57
2017-11-14T05:58:44.262Z,6.30
2017-11-14T06:01:12.932Z,6.70
2017-11-14T06:03:40.798Z,5.97
2017-11-14T06:06:08.919Z,5.63
2017-11-14T06:08:36.749Z,6.20
2017-11-14T06:11:05.087Z,6.30
2017-11-14T06:13:33.001Z,5.70
2017-11-14T06:16:00.845Z,6.83
2017-11-14T06:18:28.726Z,6.70
2017-11-14T06:21:04.976Z,5.97
2017-11-14T06:23:32.934Z,6.77
2017-11-14T06:26:00.774Z,7.07
2017-11-14T06:28:28.724Z,6.43
2017-11-14T06:30:56.632Z,7.33
2017-11-14T06:33:24.549Z,6.87
2017-11-14T06:35:55.565Z,7.03
2017-11-14T06:38:23.378Z,7.77
2017-11-14T06:40:51.294Z,7.00
2017-11-14T06:43:19.230Z,7.80
2017-11-14T06:45:47.582Z,8.47
2017-11-14T06:48:16.410Z,7.03
2017-11-14T06:50:44.186Z,7.53
2017-11-14T06:53:12.004Z,8.20
2017-11-14T06:55:39.864Z,7.00
2017-11-14T06:58:07.768Z,8.00
2017-11-14T07:00:36.402Z,8.90
2017-11-14T07:03:04.356Z,8.80
2017-11-14T07:05:32.265Z,9.60
2017-11-14T07:08:00.131Z,9.73
2017-11-14T07:10:27.959Z,9.30
2017-11-14T07:12:55.746Z,9.57
2017-11-14T07:15:23.599Z,9.17
2017-11-14T07:17:51.482Z,8.77
2017-11-14T07:20:20.183Z,9.77
2017-11-14T07:22:48.020Z,9.93
2017-11-14T07:25:15.874Z,10.70
2017-11-14T07:27:43.700Z,10.80
2017-11-14T07:30:11.522Z,9.40
2017-11-14T07:32:39.310Z,10.37
2017-11-14T07:35:08.146Z,11.10
2017-11-14T07:37:35.990Z,10.00
2017-11-14T07:40:03.816Z,10.77
2017-11-14T07:42:31.660Z,9.73
2017-11-14T07:44:59.518Z,10.83
2017-11-14T07:47:27.374Z,9.53
2017-11-14T07:49:55.165Z,10.20
2017-11-14T07:52:23.779Z,9.80
2017-11-14T07:54:51.628Z,9.63
2017-11-14T07:57:20.235Z,11.17
2017-11-14T07:59:48.116Z,10.97
2017-11-14T08:02:15.886Z,11.40
2017-11-14T08:04:43.937Z,10.90
2017-11-14T08:07:11.811Z,10.53
2017-11-14T08:09:39.684Z,10.90
2017-11-14T08:12:07.520Z,12.03
2017-11-14T08:14:36.169Z,11.10
2017-11-14T08:17:03.994Z,11.00
2017-11-14T08:19:31.831Z,11.80
2017-11-14T08:21:59.769Z,11.03
2017-11-14T08:24:27.656Z,11.17
2017-11-14T08:26:55.541Z,12.23
2017-11-14T08:29:23.427Z,12.57
2017-11-14T08:31:52.040Z,11.77
2017-11-14T08:34:19.879Z,13.50
2017-11-14T08:36:48.503Z,10.80
2017-11-14T08:39:16.318Z,11.57
2017-11-14T08:41:44.120Z,11.97
2017-11-14T08:44:11.961Z,11.30
2017-11-14T08:46:39.974Z,12.60
2017-11-14T08:49:07.788Z,12.53
2017-11-14T08:51:35.604Z,11.60
2017-11-14T08:54:03.470Z,12.00
2017-11-14T08:56:31.355Z,11.97
2017-11-14T08:58:59.222Z,13.50
2017-11-14T09:01:27.153Z,13.70
2017-11-14T09:03:55.847Z,14.07
2017-11-14T09:06:23.763Z,14.30
2017-11-14T09:08:51.727Z,15.33
2017-11-14T09:11:19.649Z,13.93
2017-11-14T09:13:47.649Z,14.00
2017-11-14T09:16:15.500Z,12.97
2017-11-14T09:18:43.333Z,11.90
2017-11-14T09:21:11.373Z,11.73
2017-11-14T09:23:39.358Z,10.90
2017-11-14T09:26:07.339Z,9.73
2017-11-14T09:28:35.279Z,9.53
2017-11-14T09:31:03.263Z,10.10
2017-11-14T09:33:31.179Z,9.60
2017-11-14T09:35:59.099Z,8.10
2017-11-14T09:38:27.069Z,9.00
2017-11-14T09:41:01.009Z,14.90
2017-11-14T09:43:28.906Z,12.90
2017-11-14T09:45:56.844Z,8.70
2017-11-14T09:48:24.900Z,7.23
2017-11-14T09:50:52.824Z,8.27
2017-11-14T09:53:20.731Z,4.90
2017-11-14T09:55:48.587Z,6.60
2017-11-14T09:58:16.566Z,6.00
2017-11-14T10:00:44.424Z,5.90
2017-11-14T10:03:12.463Z,8.00
2017-11-14T10:05:40.342Z,6.20
2017-11-14T10:08:08.229Z,6.23
2017-11-14T10:10:36.172Z,6.20
2017-11-14T10:13:04.031Z,6.20
2017-11-14T10:15:31.932Z,5.87
2017-11-14T10:17:59.845Z,5.13
2017-11-14T10:20:27.709Z,5.83
2017-11-14T10:22:55.574Z,4.50
2017-11-14T10:25:23.388Z,4.87
2017-11-14T10:27:51.186Z,10.03
2017-11-14T10:30:20.012Z,5.20
2017-11-14T10:32:47.951Z,7.13
2017-11-14T10:35:15.927Z,4.90
2017-11-14T10:37:43.807Z,5.00
2017-11-14T10:40:19.517Z,4.57
2017-11-14T10:42:47.472Z,4.60
2017-11-14T10:45:15.321Z,4.40
2017-11-14T10:47:43.276Z,4.70
2017-11-14T10:50:11.210Z,4.10
2017-11-14T10:52:40.775Z,5.53
2017-11-14T10:55:08.743Z,5.80
2017-11-14T10:57:36.816Z,4.93
2017-11-14T11:00:04.884Z,4.40
2017-11-14T11:02:32.805Z,4.40
2017-11-14T11:05:00.708Z,4.23
2017-11-14T11:07:28.671Z,6.47
2017-11-14T11:09:56.498Z,6.30
2017-11-14T11:12:25.360Z,4.90
2017-11-14T11:14:53.251Z,4.10
2017-11-14T11:20:38.068Z,4.20
2017-11-14T11:30:07.973Z,7.60
2017-11-14T11:42:34.280Z,3.40
2017-11-14T12:13:15.961Z,4.50
2017-11-14T12:19:04.355Z,4.63
2017-11-14T12:21:32.206Z,3.77
2017-11-14T12:24:00.866Z,4.97
2017-11-14T12:26:29.597Z,3.47
2017-11-14T12:28:57.478Z,3.33
2017-11-14T12:31:25.363Z,3.50
2017-11-14T12:33:53.299Z,5.77
2017-11-14T12:36:21.240Z,3.70
2017-11-14T12:38:50.294Z,3.70
2017-11-14T12:42:01.220Z,2.90
2017-11-14T12:44:29.232Z,2.63
2017-11-14T12:46:57.137Z,1.63
2017-11-14T12:49:24.963Z,2.10
2017-11-14T12:51:52.853Z,1.73
2017-11-14T12:54:20.685Z,2.10
2017-11-14T12:56:49.470Z,2.10
2017-11-14T12:59:18.121Z,2.60
2017-11-14T13:01:46.059Z,1.60
2017-11-14T13:04:14.560Z,1.70
2017-11-14T13:06:42.918Z,1.83
2017-11-14T13:09:10.786Z,1.80
2017-11-14T13:11:38.645Z,2.90
2017-11-14T13:14:06.445Z,1.43
2017-11-14T13:16:34.293Z,1.60
2017-11-14T13:19:02.663Z,2.13
2017-11-14T13:21:30.916Z,1.83
2017-11-14T13:23:59.602Z,1.80
2017-11-14T13:26:27.554Z,1.50
2017-11-14T13:28:55.472Z,1.83
2017-11-14T13:31:23.462Z,1.70
2017-11-14T13:33:51.393Z,2.63
2017-11-14T13:36:21.889Z,2.30
2017-11-14T13:38:49.844Z,1.73
2017-11-14T13:46:37.068Z,2.03
2017-11-14T13:49:05.096Z,1.57
2017-11-14T13:51:33.122Z,1.43
2017-11-14T13:54:01.093Z,2.37
2017-11-14T13:56:29.081Z,2.00
2017-11-14T13:58:57.114Z,2.13
2017-11-14T14:01:25.114Z,2.10
2017-11-14T14:03:53.072Z,1.37
2017-11-14T14:06:20.912Z,1.47
2017-11-14T14:08:48.776Z,1.67
2017-11-14T14:11:19.428Z,3.23
2017-11-14T14:13:51.806Z,1.77
2017-11-14T14:16:20.858Z,1.97
2017-11-14T14:18:49.761Z,1.67
2017-11-14T14:21:17.650Z,2.20
2017-11-14T14:23:47.169Z,1.70
2017-11-14T14:26:15.053Z,2.20
2017-11-14T14:28:42.896Z,1.67
2017-11-14T14:31:10.804Z,1.83
2017-11-14T14:33:38.637Z,2.20
2017-11-14T14:36:14.838Z,1.40
2017-11-14T14:38:43.098Z,1.67
2017-11-14T14:41:11.055Z,2.03
2017-11-14T14:43:38.961Z,2.90
2017-11-14T14:46:07.048Z,3.67
2017-11-14T14:51:57.135Z,3.10
2017-11-14T14:54:25.123Z,2.00
2017-11-14T14:56:52.969Z,2.20
2017-11-14T14:59:50.260Z,2.03
2017-11-14T15:02:18.576Z,1.80
2017-11-14T15:07:49.505Z,2.60
2017-11-14T15:10:18.266Z,1.80
2017-11-14T15:12:46.484Z,2.00
2017-11-14T15:15:15.784Z,1.37
2017-11-14T15:17:44.544Z,2.37
2017-11-14T15:20:12.496Z,2.33
2017-11-14T15:22:40.457Z,2.00
2017-11-14T15:25:08.421Z,1.67
2017-11-14T15:27:38.340Z,1.87
2017-11-14T15:30:07.474Z,1.90
2017-11-14T15:32:35.490Z,2.53
2017-11-14T15:35:03.592Z,2.43
2017-11-14T15:37:31.613Z,2.40
2017-11-14T15:39:59.545Z,2.10
2017-11-14T15:42:28.154Z,2.20
2017-11-14T15:44:57.117Z,2.13
2017-11-14T15:47:25.678Z,1.83
2017-11-14T15:50:16.351Z,3.33
2017-11-14T15:52:44.381Z,1.90
2017-11-14T15:55:12.432Z,1.90
2017-11-14T15:57:40.390Z,2.10
2017-11-14T16:00:09.130Z,1.90
2017-11-14T16:02:38.144Z,1.80
2017-11-14T16:05:07.056Z,1.67
2017-11-14T16:07:37.766Z,1.97
2017-11-14T16:10:05.698Z,2.40
2017-11-14T16:12:34.488Z,2.00
2017-11-14T16:15:03.252Z,3.17
2017-11-14T16:17:31.254Z,4.33
2017-11-14T16:34:07.175Z,3.80
2017-11-14T16:36:36.380Z,3.60
2017-11-14T16:39:04.410Z,3.67
2017-11-14T16:41:37.731Z,6.43
2017-11-14T16:44:05.868Z,4.60
2017-11-14T16:46:36.221Z,4.13
2017-11-14T16:49:04.309Z,4.23
2017-11-14T16:51:32.304Z,3.87
2017-11-14T16:54:00.460Z,4.40
2017-11-14T16:56:31.196Z,3.80
2017-11-14T16:58:59.152Z,2.80
2017-11-14T17:01:28.036Z,3.75
2017-11-14T17:03:56.961Z,3.50
2017-11-14T17:06:27.685Z,3.60
2017-11-14T17:08:55.859Z,5.30
2017-11-14T17:11:24.045Z,7.10
2017-11-14T17:13:52.034Z,4.10
2017-11-14T17:16:20.007Z,5.07
2017-11-14T17:18:47.983Z,7.90
2017-11-14T17:21:15.814Z,4.80
2017-11-14T17:23:43.685Z,6.20
2017-11-14T17:26:11.470Z,9.13
2017-11-14T17:28:39.335Z,9.20
2017-11-14T17:31:07.223Z,6.20
2017-11-14T17:33:35.096Z,4.83
2017-11-14T17:36:03.118Z,5.53
2017-11-14T17:51:52.390Z,5.00
2017-11-14T17:54:23.997Z,5.13
2017-11-14T17:56:51.853Z,4.80
2017-11-14T17:59:19.842Z,4.50
2017-11-14T18:01:50.121Z,5.17
2017-11-14T18:04:18.089Z,5.10
2017-11-14T18:06:45.871Z,4.80
2017-11-14T18:09:14.467Z,6.53
2017-11-14T18:11:42.379Z,5.80
2017-11-14T18:14:10.250Z,5.23
2017-11-14T18:16:38.048Z,5.13
2017-11-14T18:19:05.961Z,5.57
2017-11-14T18:21:33.924Z,6.00
2017-11-14T18:24:04.490Z,5.70
2017-11-14T18:26:32.431Z,5.07
2017-11-14T18:29:00.307Z,5.40
2017-11-14T18:31:28.320Z,6.60
2017-11-14T18:33:57.088Z,6.50
2017-11-14T18:36:25.307Z,6.83
2017-11-14T18:38:54.535Z,5.90
2017-11-14T18:41:22.458Z,9.17
2017-11-14T18:43:50.338Z,7.37
2017-11-14T18:46:20.606Z,6.80
2017-11-14T18:48:48.514Z,7.53
2017-11-14T18:51:17.224Z,7.63
2017-11-14T18:53:45.888Z,8.47
2017-11-14T18:56:13.715Z,7.80
2017-11-14T18:58:41.625Z,11.47
2017-11-14T19:01:09.400Z,6.83
2017-11-14T19:03:44.806Z,6.30
2017-11-14T19:06:13.963Z,7.90
2017-11-14T19:08:41.825Z,7.37
2017-11-14T19:11:09.751Z,7.90
2017-11-14T19:13:37.488Z,8.83
2017-11-14T19:16:05.308Z,8.10
2017-11-14T19:18:33.104Z,7.70
2017-11-14T19:21:01.658Z,7.50
2017-11-14T19:23:29.565Z,7.23
2017-11-14T19:25:57.374Z,8.97
2017-11-14T19:28:25.180Z,11.17
2017-11-14T19:30:53.026Z,6.40
2017-11-14T19:33:20.760Z,6.93
2017-11-14T19:35:54.028Z,7.67
2017-11-14T19:38:22.057Z,8.63
2017-11-14T19:40:49.901Z,7.80
2017-11-14T19:43:17.697Z,8.17
2017-11-14T19:45:45.551Z,7.93
2017-11-14T19:48:13.793Z,7.73
2017-11-14T19:50:47.384Z,8.10
2017-11-14T19:53:15.248Z,12.30
2017-11-14T19:55:43.843Z,8.90
2017-11-14T19:58:11.745Z,10.80
2017-11-14T20:00:40.386Z,10.60
2017-11-14T20:03:09.114Z,9.40
2017-11-14T20:05:36.981Z,11.17
2017-11-14T20:08:04.810Z,10.33
2017-11-14T20:10:32.667Z,10.80
2017-11-14T20:13:00.560Z,10.43
2017-11-14T20:15:28.519Z,9.10
2017-11-14T20:17:57.068Z,9.97
2017-11-14T20:20:24.837Z,9.70
2017-11-14T20:22:53.720Z,10.20
2017-11-14T20:25:21.648Z,13.47
2017-11-14T20:27:50.850Z,10.27
2017-11-14T20:30:19.634Z,10.70
2017-11-14T20:32:47.534Z,9.67
2017-11-14T20:35:16.387Z,10.60
2017-11-14T20:37:46.185Z,9.43
2017-11-14T20:40:14.516Z,11.40
2017-11-14T20:42:42.377Z,10.90
2017-11-14T20:45:10.206Z,10.93
2017-11-14T20:47:38.031Z,10.07
2017-11-14T20:50:05.868Z,10.03
2017-11-14T20:52:34.409Z,9.90
2017-11-14T20:55:02.234Z,10.50
2017-11-14T20:57:31.172Z,11.60
2017-11-14T20:59:59.065Z,10.70
2017-11-14T21:02:26.899Z,10.77
2017-11-14T21:04:54.669Z,11.00
2017-11-14T21:07:22.512Z,11.43
2017-11-14T21:09:50.373Z,12.37
2017-11-14T21:12:18.257Z,13.13
2017-11-14T21:14:46.140Z,11.10
2017-11-14T21:17:14.008Z,12.20
2017-11-14T21:19:41.805Z,12.33
2017-11-14T21:22:09.601Z,12.80
2017-11-14T21:24:37.421Z,11.50
2017-11-14T21:27:05.261Z,11.50
2017-11-14T21:29:33.867Z,11.67
2017-11-14T21:32:01.748Z,12.87
2017-11-14T21:34:29.537Z,10.90
2017-11-14T21:36:58.213Z,12.97
2017-11-14T21:39:26.369Z,12.13
2017-11-14T21:42:02.378Z,12.43
2017-11-14T21:44:34.105Z,12.93
2017-11-14T21:47:01.872Z,11.90
2017-11-14T21:49:29.693Z,12.80
2017-11-14T21:51:57.517Z,12.00
2017-11-14T21:54:25.379Z,11.43
2017-11-14T21:56:53.197Z,10.83
2017-11-14T21:59:20.948Z,12.20
2017-11-14T22:01:48.761Z,12.37
2017-11-14T22:04:16.573Z,10.83
2017-11-14T22:06:45.155Z,10.43
2017-11-14T22:09:12.931Z,11.33
2017-11-14T22:11:40.769Z,10.00
2017-11-14T22:14:08.598Z,10.60
2017-11-14T22:16:36.406Z,12.00
2017-11-14T22:19:04.203Z,10.80
2017-11-14T22:21:32.800Z,10.70
2017-11-14T22:24:01.418Z,10.23
2017-11-14T22:26:29.316Z,10.80
2017-11-14T22:28:57.161Z,10.30
2017-11-14T22:31:25.012Z,10.10
2017-11-14T22:33:52.894Z,10.13
2017-11-14T22:36:20.706Z,10.67
2017-11-14T22:38:48.608Z,11.43
2017-11-14T22:41:16.498Z,9.37
2017-11-14T22:43:44.358Z,10.07
2017-11-14T22:46:12.194Z,9.10
2017-11-14T22:48:40.033Z,10.57
2017-11-14T22:51:07.855Z,11.00
2017-11-14T22:53:35.656Z,11.23
2017-11-14T22:56:03.586Z,10.30
2017-11-14T22:58:31.455Z,11.37
2017-11-14T23:00:59.305Z,11.40
2017-11-14T23:03:27.949Z,11.33
2017-11-14T23:05:55.807Z,10.83
2017-11-14T23:08:23.614Z,10.60
2017-11-14T23:10:52.300Z,10.33
2017-11-14T23:13:20.075Z,10.50
2017-11-14T23:15:47.849Z,10.20
2017-11-14T23:18:15.605Z,11.03
2017-11-14T23:20:43.415Z,11.63
2017-11-14T23:23:11.229Z,11.87
2017-11-14T23:25:39.008Z,11.00
2017-11-14T23:28:07.609Z,10.90
2017-11-14T23:30:36.158Z,10.97
2017-11-14T23:33:03.960Z,10.60
2017-11-14T23:35:32.471Z,10.70
2017-11-14T23:38:00.279Z,9.87
2017-11-14T23:40:28.108Z,11.27
2017-11-14T23:42:55.891Z,10.17
2017-11-14T23:45:24.289Z,11.33
2017-11-14T23:47:52.095Z,11.17
2017-11-14T23:50:19.941Z,10.47
2017-11-14T23:52:47.716Z,9.70
2017-11-14T23:55:15.495Z,10.93
2017-11-14T23:57:43.324Z,11.30
